createdAt,value
2018-12-15T00:00:57.226Z,25.00
2018-12-15T00:03:25.316Z,24.50
2018-12-15T00:05:53.395Z,23.17
2018-12-15T00:08:21.456Z,26.17
2018-12-15T00:10:49.481Z,24.67
2018-12-15T00:13:17.559Z,27.63
2018-12-15T00:15:45.620Z,26.53
2018-12-15T00:18:13.695Z,26.33
2018-12-15T00:20:41.773Z,26.50
2018-12-15T00:23:09.815Z,25.57
2018-12-15T00:25:37.873Z,22.53
2018-12-15T00:28:05.996Z,26.60
2018-12-15T00:30:34.037Z,26.90
2018-12-15T00:33:02.091Z,26.53
2018-12-15T00:35:30.163Z,27.03
2018-12-15T00:37:58.229Z,25.53
2018-12-15T00:40:26.329Z,26.63
2018-12-15T00:42:54.383Z,26.13
2018-12-15T00:45:22.499Z,26.80
2018-12-15T00:47:50.568Z,28.07
2018-12-15T00:50:18.632Z,29.60
2018-12-15T00:52:46.701Z,27.77
2018-12-15T00:55:14.776Z,31.43
2018-12-15T00:57:42.834Z,29.73
2018-12-15T01:00:10.916Z,26.20
2018-12-15T01:02:38.972Z,26.83
2018-12-15T01:05:07.166Z,28.47
2018-12-15T01:07:35.306Z,28.20
2018-12-15T01:10:03.613Z,30.40
2018-12-15T01:12:31.708Z,26.80
2018-12-15T01:14:59.765Z,25.77
2018-12-15T01:17:27.855Z,28.57
2018-12-15T01:19:55.931Z,29.20
2018-12-15T01:22:23.998Z,29.83
2018-12-15T01:24:52.033Z,27.70
2018-12-15T01:27:20.103Z,27.10
2018-12-15T01:29:48.171Z,27.90
2018-12-15T01:32:16.237Z,31.07
2018-12-15T01:34:44.299Z,26.50
2018-12-15T01:37:12.340Z,27.30
2018-12-15T01:39:40.432Z,26.77
2018-12-15T01:42:08.501Z,29.57
2018-12-15T01:44:36.600Z,28.00
2018-12-15T01:47:04.672Z,30.17
2018-12-15T01:49:32.722Z,24.07
2018-12-15T01:52:00.793Z,28.30
2018-12-15T01:54:28.860Z,27.87
2018-12-15T01:56:56.924Z,29.50
2018-12-15T01:59:24.971Z,26.70
2018-12-15T02:01:53.036Z,29.13
2018-12-15T02:04:21.111Z,29.87
2018-12-15T02:06:49.163Z,31.50
2018-12-15T02:09:17.203Z,30.70
2018-12-15T02:11:45.309Z,33.93
2018-12-15T02:14:13.355Z,33.40
2018-12-15T02:16:41.404Z,30.77
2018-12-15T02:19:09.478Z,31.27
2018-12-15T02:21:37.623Z,31.33
2018-12-15T02:24:05.705Z,30.00
2018-12-15T02:26:33.763Z,29.87
2018-12-15T02:29:01.809Z,28.73
2018-12-15T02:31:29.881Z,27.50
2018-12-15T02:33:57.970Z,32.00
2018-12-15T02:36:26.009Z,30.00
2018-12-15T02:38:54.078Z,29.93
2018-12-15T02:41:22.121Z,33.23
2018-12-15T02:43:50.206Z,30.03
2018-12-15T02:46:18.296Z,32.33
2018-12-15T02:48:46.371Z,33.50
2018-12-15T02:51:14.414Z,34.83
2018-12-15T02:53:42.497Z,32.40
2018-12-15T02:56:10.586Z,33.77
2018-12-15T02:58:38.618Z,33.43
2018-12-15T03:01:06.676Z,31.17
2018-12-15T03:03:34.735Z,31.43
2018-12-15T03:06:02.766Z,30.97
2018-12-15T03:08:30.829Z,32.83
2018-12-15T03:10:58.864Z,30.43
2018-12-15T03:13:26.926Z,32.57
2018-12-15T03:15:54.984Z,31.70
2018-12-15T03:18:23.029Z,31.57
2018-12-15T03:20:59.358Z,33.73
2018-12-15T03:23:27.525Z,29.87
2018-12-15T03:25:55.582Z,29.40
2018-12-15T03:28:23.644Z,34.00
2018-12-15T03:30:51.688Z,31.27
2018-12-15T03:33:19.758Z,32.43
2018-12-15T03:35:47.827Z,33.90
2018-12-15T03:38:15.849Z,34.23
2018-12-15T03:40:43.968Z,32.07
2018-12-15T03:43:12.117Z,36.87
2018-12-15T03:45:40.171Z,29.83
2018-12-15T03:48:08.223Z,30.67
2018-12-15T03:50:36.365Z,29.90
2018-12-15T03:53:04.410Z,27.97
2018-12-15T03:55:32.452Z,27.57
2018-12-15T03:58:00.532Z,29.30
2018-12-15T04:00:28.604Z,29.13
2018-12-15T04:02:56.675Z,29.00
2018-12-15T04:05:24.733Z,30.47
2018-12-15T04:07:52.779Z,27.73
2018-12-15T04:10:20.946Z,25.37
2018-12-15T04:12:49.069Z,27.57
2018-12-15T04:15:17.240Z,28.90
2018-12-15T04:17:45.285Z,31.93
2018-12-15T04:20:13.356Z,31.70
2018-12-15T04:22:41.413Z,29.73
2018-12-15T04:25:09.437Z,27.17
2018-12-15T04:27:37.503Z,28.20
2018-12-15T04:30:06.131Z,30.37
2018-12-15T04:32:34.215Z,28.80
2018-12-15T04:35:02.248Z,27.77
2018-12-15T04:37:30.323Z,31.23
2018-12-15T04:39:58.371Z,26.90
2018-12-15T04:42:26.441Z,32.97
2018-12-15T04:44:54.479Z,27.40
2018-12-15T04:47:22.722Z,28.23
2018-12-15T04:49:50.787Z,28.53
2018-12-15T04:52:18.835Z,26.93
2018-12-15T04:54:46.912Z,33.63
2018-12-15T04:57:14.975Z,31.70
2018-12-15T04:59:43.068Z,27.53
2018-12-15T05:02:11.155Z,33.73
2018-12-15T05:04:46.052Z,30.20
2018-12-15T05:07:14.189Z,36.03
2018-12-15T05:09:42.249Z,34.47
2018-12-15T05:12:10.438Z,33.30
2018-12-15T05:14:38.489Z,32.83
2018-12-15T05:17:06.555Z,33.73
2018-12-15T05:19:34.610Z,35.60
2018-12-15T05:22:03.108Z,31.23
2018-12-15T05:24:31.184Z,30.37
2018-12-15T05:26:59.208Z,34.17
2018-12-15T05:29:27.249Z,28.00
2018-12-15T05:31:55.306Z,32.47
2018-12-15T05:34:23.380Z,29.17
2018-12-15T05:36:51.550Z,24.67
2018-12-15T05:39:19.591Z,28.57
2018-12-15T05:41:47.668Z,26.90
2018-12-15T05:44:15.727Z,29.47
2018-12-15T05:46:43.800Z,26.47
2018-12-15T05:49:11.925Z,25.60
2018-12-15T05:51:39.972Z,25.50
2018-12-15T05:54:08.055Z,24.07
2018-12-15T05:56:36.110Z,25.53
2018-12-15T05:59:04.307Z,24.20
2018-12-15T06:01:32.367Z,24.93
2018-12-15T06:04:00.434Z,26.20
2018-12-15T06:06:28.562Z,23.53
2018-12-15T06:08:56.618Z,24.50
2018-12-15T06:11:24.669Z,23.07
2018-12-15T06:13:52.746Z,24.63
2018-12-15T06:16:20.784Z,22.50
2018-12-15T06:18:48.874Z,19.07
2018-12-15T06:21:16.909Z,20.57
2018-12-15T06:23:44.972Z,19.90
2018-12-15T06:26:13.163Z,21.37
2018-12-15T06:28:41.195Z,18.23
2018-12-15T06:31:09.276Z,19.47
2018-12-15T06:33:37.419Z,18.13
2018-12-15T06:36:05.598Z,19.80
2018-12-15T06:38:33.669Z,23.73
2018-12-15T06:41:01.724Z,25.63
2018-12-15T06:43:29.974Z,20.13
2018-12-15T06:45:58.308Z,20.07
2018-12-15T06:48:26.374Z,22.17
2018-12-15T06:50:54.427Z,21.00
2018-12-15T06:53:22.503Z,23.37
2018-12-15T06:55:50.551Z,21.13
2018-12-15T06:58:18.627Z,24.23
2018-12-15T07:00:46.697Z,20.93
2018-12-15T07:03:14.857Z,23.73
2018-12-15T07:05:42.943Z,23.43
2018-12-15T07:08:11.019Z,24.13
2018-12-15T07:10:39.189Z,22.50
2018-12-15T07:13:07.241Z,22.03
2018-12-15T07:15:35.298Z,22.70
2018-12-15T07:18:03.341Z,26.60
2018-12-15T07:20:31.395Z,25.20
2018-12-15T07:22:59.465Z,25.63
2018-12-15T07:25:27.530Z,29.17
2018-12-15T07:27:55.596Z,25.50
2018-12-15T07:30:23.873Z,24.80
2018-12-15T07:32:51.941Z,26.90
2018-12-15T07:35:19.982Z,25.30
2018-12-15T07:37:48.039Z,23.27
2018-12-15T07:40:16.088Z,20.03
2018-12-15T07:42:44.156Z,24.17
2018-12-15T07:45:12.195Z,22.43
2018-12-15T07:47:40.255Z,22.83
2018-12-15T07:50:08.332Z,23.63
2018-12-15T07:52:36.372Z,23.63
2018-12-15T07:55:04.590Z,22.80
2018-12-15T07:57:32.764Z,21.67
2018-12-15T08:00:00.870Z,21.73
2018-12-15T08:02:28.895Z,20.50
2018-12-15T08:04:56.938Z,24.20
2018-12-15T08:07:25.140Z,27.83
2018-12-15T08:09:53.175Z,24.47
2018-12-15T08:12:26.740Z,22.10
2018-12-15T08:14:54.774Z,25.70
2018-12-15T08:17:22.854Z,18.93
2018-12-15T08:19:50.946Z,26.67
2018-12-15T08:22:19.007Z,30.23
2018-12-15T08:24:47.093Z,25.80
2018-12-15T08:27:15.138Z,25.07
2018-12-15T08:29:43.333Z,24.53
2018-12-15T08:32:11.383Z,25.10
2018-12-15T08:34:39.459Z,26.00
2018-12-15T08:37:07.513Z,30.43
2018-12-15T08:39:35.617Z,24.70
2018-12-15T08:42:03.963Z,28.10
2018-12-15T08:44:32.398Z,24.23
2018-12-15T08:47:00.593Z,24.53
2018-12-15T08:49:28.627Z,21.80
2018-12-15T08:51:56.695Z,23.60
2018-12-15T08:54:24.765Z,26.33
2018-12-15T08:56:52.826Z,24.63
2018-12-15T08:59:20.888Z,29.80
2018-12-15T09:01:48.983Z,28.33
2018-12-15T09:04:17.015Z,26.23
2018-12-15T09:06:45.069Z,27.57
2018-12-15T09:09:13.126Z,28.37
2018-12-15T09:11:41.241Z,27.77
2018-12-15T09:14:09.288Z,30.20
2018-12-15T09:16:37.363Z,30.50
2018-12-15T09:19:11.074Z,30.87
2018-12-15T09:21:35.508Z,28.27
2018-12-15T09:24:03.572Z,32.50
2018-12-15T09:26:31.657Z,27.40
2018-12-15T09:28:59.722Z,29.77
2018-12-15T09:31:27.804Z,30.83
2018-12-15T09:33:55.825Z,29.60
2018-12-15T09:36:23.903Z,30.50
2018-12-15T09:38:52.409Z,27.30
2018-12-15T09:41:20.515Z,33.23
2018-12-15T09:43:48.543Z,32.30
2018-12-15T09:46:16.598Z,31.13
2018-12-15T09:48:44.631Z,28.03
2018-12-15T09:51:12.728Z,28.10
2018-12-15T09:53:40.802Z,29.90
2018-12-15T09:56:08.918Z,29.10
2018-12-15T09:58:37.005Z,30.13
2018-12-15T10:01:05.062Z,30.93
2018-12-15T10:03:33.133Z,30.60
2018-12-15T10:06:01.242Z,29.33
2018-12-15T10:08:29.296Z,27.93
2018-12-15T10:10:57.376Z,28.80
2018-12-15T10:13:25.401Z,30.00
2018-12-15T10:15:53.511Z,28.30
2018-12-15T10:18:21.550Z,30.67
2018-12-15T10:20:49.635Z,29.40
2018-12-15T10:23:17.691Z,28.60
2018-12-15T10:25:45.740Z,25.03
2018-12-15T10:28:13.806Z,25.53
2018-12-15T10:30:47.228Z,25.37
2018-12-15T10:33:15.315Z,28.47
2018-12-15T10:35:43.362Z,26.43
2018-12-15T10:38:11.411Z,31.97
2018-12-15T10:40:39.464Z,27.00
2018-12-15T10:43:07.558Z,23.13
2018-12-15T10:45:35.609Z,24.87
2018-12-15T10:48:03.805Z,27.43
2018-12-15T10:50:31.977Z,24.80
2018-12-15T10:53:00.071Z,26.70
2018-12-15T10:55:28.362Z,25.23
2018-12-15T10:57:56.556Z,27.30
2018-12-15T11:00:29.199Z,36.40
2018-12-15T11:02:57.283Z,24.30
2018-12-15T11:05:25.332Z,23.27
2018-12-15T11:07:53.384Z,24.87
2018-12-15T11:10:21.432Z,26.87
2018-12-15T11:12:49.512Z,26.90
2018-12-15T11:15:17.568Z,22.23
2018-12-15T11:17:45.629Z,24.17
2018-12-15T11:20:13.668Z,22.70
2018-12-15T11:22:41.771Z,21.63
2018-12-15T11:25:09.820Z,22.60
2018-12-15T11:27:37.904Z,21.17
2018-12-15T11:30:05.995Z,25.17
2018-12-15T11:32:34.131Z,24.73
2018-12-15T11:35:02.192Z,24.33
2018-12-15T11:37:30.251Z,21.83
2018-12-15T11:39:58.331Z,22.87
2018-12-15T11:42:26.396Z,21.30
2018-12-15T11:44:54.516Z,22.07
2018-12-15T11:47:22.558Z,23.07
2018-12-15T11:49:50.647Z,22.67
2018-12-15T11:52:18.736Z,25.47
2018-12-15T11:54:46.776Z,25.23
2018-12-15T11:57:14.876Z,21.87
2018-12-15T11:59:42.954Z,21.17
2018-12-15T12:02:11.000Z,19.43
2018-12-15T12:04:39.074Z,21.50
2018-12-15T12:07:07.915Z,21.13
2018-12-15T12:09:36.130Z,17.97
2018-12-15T12:12:04.328Z,22.10
2018-12-15T12:14:32.368Z,20.17
2018-12-15T12:17:00.432Z,28.13
2018-12-15T12:19:28.479Z,21.67
2018-12-15T12:21:56.618Z,23.73
2018-12-15T12:24:24.808Z,22.30
2018-12-15T12:26:52.869Z,19.97
2018-12-15T12:29:20.986Z,20.73
2018-12-15T12:31:49.078Z,17.60
2018-12-15T12:34:17.158Z,17.00
2018-12-15T12:36:45.186Z,19.37
2018-12-15T12:39:13.271Z,23.07
2018-12-15T12:41:41.337Z,19.43
2018-12-15T12:44:09.441Z,21.53
2018-12-15T12:46:37.529Z,20.00
2018-12-15T12:49:05.630Z,18.73
2018-12-15T12:51:33.663Z,21.00
2018-12-15T12:54:01.751Z,20.23
2018-12-15T12:56:29.793Z,20.77
2018-12-15T12:58:57.857Z,21.07
2018-12-15T13:01:25.932Z,21.83
2018-12-15T13:03:54.015Z,26.33
2018-12-15T13:06:22.077Z,23.80
2018-12-15T13:08:50.149Z,28.03
2018-12-15T13:11:18.187Z,26.00
2018-12-15T13:13:46.253Z,19.90
2018-12-15T13:16:14.331Z,23.00
2018-12-15T13:18:42.423Z,25.07
2018-12-15T13:21:10.486Z,24.67
2018-12-15T13:23:38.532Z,24.37
2018-12-15T13:26:06.707Z,21.43
2018-12-15T13:28:34.792Z,24.13
2018-12-15T13:31:02.837Z,24.23
2018-12-15T13:33:32.623Z,24.10
2018-12-15T13:36:00.818Z,23.00
2018-12-15T13:38:28.871Z,23.67
2018-12-15T13:40:57.093Z,23.30
2018-12-15T13:43:25.131Z,27.20
2018-12-15T13:45:53.180Z,24.37
2018-12-15T13:48:21.326Z,25.77
2018-12-15T13:50:49.433Z,26.43
2018-12-15T13:53:17.464Z,29.03
2018-12-15T13:55:45.532Z,26.93
2018-12-15T13:58:13.770Z,22.93
2018-12-15T14:00:41.818Z,23.73
2018-12-15T14:03:09.884Z,28.30
2018-12-15T14:05:37.966Z,26.80
2018-12-15T14:08:06.038Z,23.57
2018-12-15T14:10:34.077Z,27.97
2018-12-15T14:13:02.167Z,28.47
2018-12-15T14:15:30.243Z,27.87
2018-12-15T14:17:58.309Z,24.33
2018-12-15T14:20:26.473Z,24.90
2018-12-15T14:22:54.674Z,25.23
2018-12-15T14:25:22.719Z,27.40
2018-12-15T14:27:50.790Z,32.80
2018-12-15T14:30:18.865Z,32.47
2018-12-15T14:32:46.981Z,29.53
2018-12-15T14:35:15.026Z,28.50
2018-12-15T14:37:43.102Z,29.70
2018-12-15T14:40:11.313Z,27.27
2018-12-15T14:42:39.416Z,29.77
2018-12-15T14:45:07.608Z,31.80
2018-12-15T14:47:35.714Z,30.63
2018-12-15T14:50:04.135Z,28.77
2018-12-15T14:52:32.249Z,30.27
2018-12-15T14:55:00.353Z,32.10
2018-12-15T14:57:28.434Z,28.47
2018-12-15T14:59:56.487Z,26.80
2018-12-15T15:02:24.550Z,30.13
2018-12-15T15:04:52.632Z,26.80
2018-12-15T15:07:20.716Z,31.35
2018-12-15T15:09:48.794Z,31.57
2018-12-15T15:12:16.854Z,32.47
2018-12-15T15:14:44.938Z,31.70
2018-12-15T15:17:13.002Z,34.73
2018-12-15T15:19:41.072Z,31.40
2018-12-15T15:22:09.128Z,43.07
2018-12-15T15:24:37.211Z,41.17
2018-12-15T15:27:05.381Z,32.80
2018-12-15T15:29:33.560Z,32.87
2018-12-15T15:32:01.603Z,34.83
2018-12-15T15:34:29.659Z,29.23
2018-12-15T15:36:57.765Z,32.47
2018-12-15T16:00:15.582Z,20.80
2018-12-15T16:02:43.699Z,19.87
2018-12-15T16:05:11.803Z,21.60
2018-12-15T16:09:21.973Z,21.57
2018-12-15T16:11:49.350Z,18.57
2018-12-15T16:14:16.676Z,20.53
2018-12-15T16:16:44.048Z,18.83
2018-12-15T16:19:11.403Z,23.83
2018-12-15T16:21:38.845Z,22.80
2018-12-15T16:24:06.215Z,25.13
2018-12-15T16:26:33.580Z,24.37
2018-12-15T16:29:00.940Z,26.93
2018-12-15T16:31:28.281Z,29.80
2018-12-15T16:33:55.667Z,29.63
2018-12-15T16:36:22.997Z,31.93
2018-12-15T16:38:50.364Z,33.50
2018-12-15T16:41:17.738Z,31.07
2018-12-15T16:43:45.097Z,28.53
2018-12-15T16:46:12.484Z,27.37
2018-12-15T16:48:39.818Z,31.63
2018-12-15T16:51:07.181Z,28.33
2018-12-15T16:53:34.518Z,29.27
2018-12-15T16:56:01.913Z,32.50
2018-12-15T16:58:29.259Z,35.83
2018-12-15T17:00:56.761Z,29.93
2018-12-15T17:03:30.381Z,29.10
2018-12-15T17:05:53.513Z,31.50
2018-12-15T17:08:20.859Z,28.10
2018-12-15T17:10:48.217Z,27.50
2018-12-15T17:13:15.602Z,28.73
2018-12-15T17:15:42.939Z,25.60
2018-12-15T17:19:09.594Z,27.10
2018-12-15T17:22:26.560Z,26.67
2018-12-15T17:24:53.990Z,23.27
2018-12-15T17:27:25.914Z,29.63
2018-12-15T17:29:53.256Z,23.83
2018-12-15T17:32:20.804Z,22.53
2018-12-15T18:38:05.726Z,9.28
2018-12-15T18:40:33.107Z,11.70
2018-12-15T18:43:49.676Z,14.68
2018-12-15T18:46:17.119Z,13.13
2018-12-15T18:49:41.315Z,13.32
2018-12-15T18:52:08.799Z,13.70
2018-12-15T18:54:36.200Z,17.37
2018-12-15T18:57:03.969Z,14.80
2018-12-15T18:59:31.515Z,16.43
2018-12-15T19:01:58.952Z,18.17
2018-12-15T19:04:26.351Z,15.90
2018-12-15T19:06:53.749Z,20.87
2018-12-15T19:09:21.191Z,18.03
2018-12-15T19:11:48.580Z,19.13
2018-12-15T19:14:16.005Z,21.87
2018-12-15T19:16:43.521Z,19.70
2018-12-15T19:19:10.947Z,20.60
2018-12-15T19:21:38.706Z,27.07
2018-12-15T19:24:06.138Z,29.37
2018-12-15T19:26:43.287Z,26.47
2018-12-15T19:29:23.689Z,28.13
2018-12-15T19:32:01.079Z,33.43
2018-12-15T19:34:28.897Z,32.17
2018-12-15T19:36:58.497Z,30.73
2018-12-15T19:39:49.050Z,30.73
2018-12-15T19:42:19.887Z,27.07
2018-12-15T19:44:53.584Z,23.43
2018-12-15T19:47:21.188Z,25.00
2018-12-15T19:49:48.642Z,24.03
2018-12-15T19:52:16.148Z,27.80
2018-12-15T19:54:47.422Z,27.77
2018-12-15T19:57:15.040Z,27.60
2018-12-15T19:59:42.479Z,33.33
2018-12-15T20:02:15.374Z,29.13
2018-12-15T20:04:43.290Z,35.87
2018-12-15T20:07:10.762Z,43.13
2018-12-15T20:09:38.193Z,46.00
2018-12-15T20:12:05.762Z,33.37
2018-12-15T20:14:33.225Z,40.73
2018-12-15T20:17:00.639Z,47.93
2018-12-15T20:19:28.068Z,34.07
2018-12-15T20:21:55.505Z,32.27
2018-12-15T20:24:22.992Z,32.33
2018-12-15T20:26:50.442Z,36.10
2018-12-15T20:29:17.875Z,44.37
2018-12-15T20:31:45.247Z,36.23
2018-12-15T20:34:12.669Z,37.80
2018-12-15T20:36:40.081Z,39.73
2018-12-15T20:39:07.623Z,48.73
2018-12-15T20:41:35.060Z,59.00
2018-12-15T20:44:02.610Z,37.57
2018-12-15T20:46:30.054Z,41.53
2018-12-15T20:48:57.419Z,39.37
2018-12-15T20:51:24.834Z,38.23
2018-12-15T20:53:52.325Z,37.70
2018-12-15T20:56:19.742Z,33.37
2018-12-15T20:58:47.167Z,35.53
2018-12-15T21:01:14.587Z,37.27
2018-12-15T21:03:41.992Z,36.37
2018-12-15T21:06:09.436Z,35.90
2018-12-15T21:08:36.877Z,38.10
2018-12-15T21:11:04.921Z,40.37
2018-12-15T21:13:32.398Z,37.93
2018-12-15T21:15:59.933Z,43.60
2018-12-15T21:18:27.362Z,40.57
2018-12-15T21:20:54.773Z,38.90
2018-12-15T21:23:22.271Z,55.97
2018-12-15T21:25:49.684Z,35.53
2018-12-15T21:28:17.073Z,34.47
2018-12-15T21:30:44.534Z,31.90
2018-12-15T21:33:11.961Z,35.53
2018-12-15T21:35:39.509Z,43.63
2018-12-15T21:38:06.938Z,43.50
2018-12-15T21:40:34.357Z,40.50
2018-12-15T21:43:01.802Z,40.83
2018-12-15T21:45:29.199Z,40.67
2018-12-15T21:47:57.801Z,36.77
2018-12-15T21:50:25.497Z,39.93
2018-12-15T21:52:52.939Z,38.90
2018-12-15T21:55:20.340Z,36.27
2018-12-15T21:57:47.742Z,32.60
2018-12-15T22:00:15.334Z,39.07
2018-12-15T22:02:42.745Z,36.57
2018-12-15T22:05:10.154Z,45.53
2018-12-15T22:07:37.594Z,51.53
2018-12-15T22:10:06.583Z,50.53
2018-12-15T22:12:33.993Z,39.60
2018-12-15T22:15:01.438Z,36.83
2018-12-15T22:17:28.846Z,36.00
2018-12-15T22:19:56.278Z,32.07
2018-12-15T22:22:23.722Z,39.43
2018-12-15T22:24:51.402Z,35.40
2018-12-15T22:27:18.869Z,39.03
2018-12-15T22:29:46.343Z,39.50
2018-12-15T22:32:13.738Z,37.87
2018-12-15T22:34:41.153Z,33.17
2018-12-15T22:37:08.588Z,35.90
2018-12-15T22:39:36.037Z,36.97
2018-12-15T22:42:03.548Z,40.73
2018-12-15T22:44:30.970Z,42.37
2018-12-15T22:46:58.374Z,38.40
2018-12-15T22:49:25.800Z,37.63
2018-12-15T22:51:53.219Z,32.50
2018-12-15T22:54:20.631Z,38.47
2018-12-15T22:56:48.040Z,34.23
2018-12-15T22:59:15.576Z,36.43
2018-12-15T23:01:44.863Z,40.23
2018-12-15T23:04:12.531Z,33.27
2018-12-15T23:06:40.078Z,38.87
2018-12-15T23:09:07.813Z,44.20
2018-12-15T23:11:35.345Z,39.47
2018-12-15T23:14:02.911Z,34.10
2018-12-15T23:16:30.359Z,36.63
2018-12-15T23:18:57.785Z,34.33
2018-12-15T23:21:25.224Z,40.37
2018-12-15T23:23:52.635Z,35.60
2018-12-15T23:26:20.054Z,35.37
2018-12-15T23:28:47.471Z,35.00
2018-12-15T23:31:14.894Z,36.67
2018-12-15T23:33:42.324Z,33.03
2018-12-15T23:36:09.769Z,36.03
2018-12-15T23:38:37.151Z,41.00
2018-12-15T23:41:04.587Z,44.50
2018-12-15T23:43:32.033Z,37.73
2018-12-15T23:45:59.422Z,36.53
2018-12-15T23:48:26.829Z,42.20
2018-12-15T23:50:54.225Z,38.43
2018-12-15T23:53:21.702Z,37.40
2018-12-15T23:55:49.121Z,41.47
2018-12-15T23:58:16.500Z,37.60
